createdAt,value
2022-08-22T00:00:23.245Z,92.38
2022-08-22T00:02:47.156Z,92.20
2022-08-22T00:03:26.544Z,93.35
2022-08-22T00:06:32.175Z,91.10
2022-08-22T00:10:08.771Z,87.45
2022-08-22T00:13:08.120Z,84.55
2022-08-22T00:16:09.305Z,85.63
2022-08-22T00:19:15.925Z,86.22
2022-08-22T00:22:12.429Z,92.13
2022-08-22T00:25:28.448Z,90.47
2022-08-22T00:28:24.530Z,90.85
2022-08-22T00:31:36.711Z,89.85
2022-08-22T00:34:34.168Z,90.38
2022-08-22T00:37:32.365Z,91.63
2022-08-22T00:40:43.723Z,89.80
2022-08-22T00:44:04.645Z,98.30
2022-08-22T00:47:19.878Z,88.75
2022-08-22T00:53:34.874Z,86.38
2022-08-22T00:56:47.987Z,86.05
2022-08-22T00:59:56.278Z,86.18
2022-08-22T01:03:18.552Z,87.13
2022-08-22T01:06:20.676Z,88.13
2022-08-22T01:09:27.027Z,90.93
2022-08-22T01:12:33.380Z,89.45
2022-08-22T01:15:25.967Z,89.32
2022-08-22T01:18:29.959Z,87.32
2022-08-22T01:21:51.493Z,86.93
2022-08-22T01:25:18.447Z,86.55
2022-08-22T01:28:50.480Z,85.07
2022-08-22T01:31:46.516Z,87.37
2022-08-22T01:35:14.766Z,85.43
2022-08-22T01:38:26.105Z,85.18
2022-08-22T01:41:24.732Z,89.03
2022-08-22T01:44:45.141Z,86.88
2022-08-22T01:47:54.452Z,83.18
2022-08-22T01:50:47.292Z,86.60
2022-08-22T01:53:42.676Z,82.80
2022-08-22T01:56:41.781Z,84.28
2022-08-22T01:59:42.443Z,84.05
2022-08-22T02:02:51.279Z,85.50
2022-08-22T02:06:03.045Z,82.30
2022-08-22T02:09:08.655Z,84.50
2022-08-22T02:12:45.254Z,85.55
2022-08-22T02:15:41.210Z,81.57
2022-08-22T02:18:42.259Z,85.82
2022-08-22T02:21:55.296Z,85.35
2022-08-22T02:24:54.632Z,86.97
2022-08-22T02:27:54.154Z,88.75
2022-08-22T02:31:03.997Z,86.38
2022-08-22T02:33:58.340Z,87.55
2022-08-22T02:37:13.142Z,86.28
2022-08-22T02:40:46.556Z,88.07
2022-08-22T02:43:45.257Z,82.93
2022-08-22T02:46:54.708Z,83.13
2022-08-22T02:49:51.895Z,82.07
2022-08-22T02:53:02.834Z,85.07
2022-08-22T02:56:00.628Z,86.22
2022-08-22T02:58:53.775Z,83.15
2022-08-22T03:01:46.752Z,80.75
2022-08-22T03:04:33.850Z,86.07
2022-08-22T03:07:20.735Z,81.03
2022-08-22T03:10:26.191Z,83.22
2022-08-22T03:13:24.969Z,85.15
2022-08-22T03:16:34.064Z,82.55
2022-08-22T03:19:56.516Z,79.30
2022-08-22T03:22:48.544Z,76.45
2022-08-22T03:26:13.085Z,79.75
2022-08-22T03:29:08.129Z,76.53
2022-08-22T03:32:07.028Z,84.90
2022-08-22T03:35:09.236Z,80.70
2022-08-22T03:38:23.274Z,81.25
2022-08-22T03:41:22.676Z,77.38
2022-08-22T03:44:47.520Z,78.85
2022-08-22T03:48:03.710Z,79.30
2022-08-22T03:51:28.977Z,74.30
2022-08-22T03:54:40.404Z,76.68
2022-08-22T03:58:13.646Z,74.50
2022-08-22T04:01:41.975Z,77.85
2022-08-22T04:05:06.519Z,79.13
2022-08-22T04:08:01.946Z,78.22
2022-08-22T04:11:17.283Z,80.30
2022-08-22T04:14:13.293Z,79.82
2022-08-22T04:17:17.108Z,78.88
2022-08-22T04:20:19.567Z,81.40
2022-08-22T04:23:41.057Z,80.03
2022-08-22T04:26:49.103Z,79.25
2022-08-22T04:29:49.956Z,79.53
2022-08-22T04:32:43.983Z,78.55
2022-08-22T04:36:03.466Z,75.72
2022-08-22T04:39:09.091Z,74.28
2022-08-22T04:42:32.234Z,75.53
2022-08-22T04:45:29.747Z,72.78
2022-08-22T04:48:26.775Z,72.75
2022-08-22T04:51:25.907Z,75.20
2022-08-22T04:54:26.125Z,77.10
2022-08-22T04:57:45.653Z,75.50
2022-08-22T05:01:03.628Z,74.03
2022-08-22T05:04:22.907Z,75.07
2022-08-22T05:07:18.225Z,74.45
2022-08-22T05:10:22.941Z,76.05
2022-08-22T05:13:18.155Z,76.72
2022-08-22T05:16:12.421Z,78.63
2022-08-22T05:19:11.076Z,81.22
2022-08-22T05:22:01.802Z,83.85
2022-08-22T05:24:52.112Z,86.47
2022-08-22T05:27:44.276Z,84.70
2022-08-22T05:30:33.971Z,88.75
2022-08-22T05:33:30.408Z,91.10
2022-08-22T05:36:24.318Z,90.68
2022-08-22T05:39:21.944Z,90.82
2022-08-22T05:42:18.487Z,92.05
2022-08-22T05:45:08.554Z,90.65
2022-08-22T05:48:05.244Z,94.17
2022-08-22T05:50:58.627Z,99.72
2022-08-22T05:53:53.621Z,97.82
2022-08-22T05:56:49.888Z,96.30
2022-08-22T05:59:41.876Z,95.38
2022-08-22T06:03:00.195Z,99.18
2022-08-22T06:05:52.184Z,100.40
2022-08-22T06:08:44.317Z,106.95
2022-08-22T06:11:40.687Z,114.03
2022-08-22T06:14:52.213Z,132.00
2022-08-22T06:17:45.700Z,140.68
2022-08-22T06:20:45.903Z,149.30
2022-08-22T06:23:33.301Z,153.48
2022-08-22T06:26:21.541Z,160.15
2022-08-22T06:29:14.381Z,160.85
2022-08-22T06:32:08.544Z,159.05
2022-08-22T06:35:01.993Z,157.18
2022-08-22T06:37:50.996Z,155.20
2022-08-22T06:40:41.299Z,165.57
2022-08-22T06:43:36.801Z,173.88
2022-08-22T06:46:28.306Z,184.50
2022-08-22T06:49:16.776Z,189.75
2022-08-22T06:52:08.528Z,200.23
2022-08-22T06:55:03.054Z,195.48
2022-08-22T07:00:43.317Z,201.32
2022-08-22T07:03:36.888Z,196.80
2022-08-22T07:06:35.898Z,205.13
2022-08-22T07:09:25.440Z,209.25
2022-08-22T07:12:26.809Z,216.90
2022-08-22T07:15:39.863Z,225.52
2022-08-22T07:18:30.023Z,221.20
2022-08-22T07:21:42.539Z,217.68
2022-08-22T07:24:32.931Z,221.30
2022-08-22T07:27:25.906Z,218.73
2022-08-22T07:30:27.322Z,223.13
2022-08-22T07:33:44.304Z,216.18
2022-08-22T07:36:54.992Z,220.00
2022-08-22T07:39:54.177Z,212.23
2022-08-22T07:43:00.978Z,204.85
2022-08-22T07:45:55.818Z,192.38
2022-08-22T07:49:08.707Z,199.57
2022-08-22T07:52:00.629Z,192.10
2022-08-22T07:55:06.752Z,194.77
2022-08-22T07:57:58.066Z,188.65
2022-08-22T08:00:48.995Z,192.55
2022-08-22T08:03:36.900Z,195.02
2022-08-22T08:06:25.514Z,191.40
2022-08-22T08:09:16.888Z,191.52
2022-08-22T08:12:06.042Z,187.77
2022-08-22T08:14:55.828Z,183.30
2022-08-22T08:17:44.704Z,187.95
2022-08-22T08:20:34.624Z,192.95
2022-08-22T08:23:23.729Z,194.85
2022-08-22T08:26:15.963Z,197.00
2022-08-22T08:29:04.825Z,197.77
2022-08-22T08:31:53.050Z,205.70
2022-08-22T08:34:43.447Z,205.68
2022-08-22T08:37:41.551Z,203.02
2022-08-22T08:40:31.324Z,205.20
2022-08-22T08:43:34.879Z,202.90
2022-08-22T08:46:39.876Z,204.18
2022-08-22T08:49:42.118Z,221.90
2022-08-22T08:52:54.230Z,219.75
2022-08-22T08:56:12.165Z,221.40
2022-08-22T08:59:17.347Z,217.07
2022-08-22T09:02:13.891Z,219.52
2022-08-22T09:05:41.649Z,225.63
2022-08-22T09:08:34.598Z,224.15
2022-08-22T09:11:59.895Z,225.07
2022-08-22T09:15:31.625Z,236.70
2022-08-22T09:19:00.539Z,228.77
2022-08-22T09:22:05.538Z,229.50
2022-08-22T09:25:39.244Z,238.02
2022-08-22T09:29:00.391Z,231.02
2022-08-22T09:32:03.518Z,239.18
2022-08-22T09:35:22.565Z,233.82
2022-08-22T09:38:22.208Z,246.07
2022-08-22T09:41:41.255Z,251.13
2022-08-22T09:44:39.767Z,240.45
2022-08-22T09:47:34.563Z,239.02
2022-08-22T09:50:35.688Z,230.57
2022-08-22T09:54:01.195Z,233.70
2022-08-22T09:57:10.879Z,236.65
2022-08-22T10:00:01.057Z,250.82
2022-08-22T10:03:17.112Z,248.63
2022-08-22T10:06:13.157Z,242.70
2022-08-22T10:09:18.893Z,241.10
2022-08-22T10:12:19.523Z,250.13
2022-08-22T10:15:11.807Z,245.85
2022-08-22T10:18:20.456Z,249.27
2022-08-22T10:21:25.308Z,259.55
2022-08-22T10:24:43.553Z,267.40
2022-08-22T10:27:59.048Z,269.58
2022-08-22T10:30:57.864Z,264.63
2022-08-22T10:34:07.907Z,261.10
2022-08-22T10:37:15.680Z,256.58
2022-08-22T10:40:08.555Z,260.02
2022-08-22T10:43:05.956Z,264.17
2022-08-22T10:46:03.636Z,268.65
2022-08-22T10:49:05.939Z,270.33
2022-08-22T10:52:15.268Z,271.63
2022-08-22T10:55:13.669Z,276.10
2022-08-22T10:58:11.027Z,260.67
2022-08-22T11:01:01.377Z,257.55
2022-08-22T11:04:28.370Z,241.15
2022-08-22T11:07:50.224Z,226.88
2022-08-22T11:10:52.103Z,213.25
2022-08-22T11:13:46.473Z,203.77
2022-08-22T11:16:41.768Z,212.63
2022-08-22T11:19:57.516Z,233.60
2022-08-22T11:23:18.653Z,255.30
2022-08-22T11:26:15.141Z,251.75
2022-08-22T11:29:43.575Z,271.95
2022-08-22T11:32:36.752Z,274.45
2022-08-22T11:35:31.876Z,263.98
2022-08-22T11:38:22.187Z,250.38
2022-08-22T11:41:24.030Z,249.50
2022-08-22T11:44:29.796Z,255.43
2022-08-22T11:47:20.523Z,268.10
2022-08-22T11:50:35.204Z,285.00
2022-08-22T11:53:34.177Z,275.17
2022-08-22T11:56:27.311Z,276.50
2022-08-22T11:59:29.777Z,270.45
2022-08-22T12:02:26.292Z,272.60
2022-08-22T12:08:14.118Z,275.00
2022-08-22T12:11:07.033Z,257.40
2022-08-22T12:14:06.129Z,254.30
2022-08-22T12:17:08.774Z,264.17
2022-08-22T12:20:40.489Z,267.02
2022-08-22T12:23:49.745Z,264.90
2022-08-22T12:27:07.908Z,266.15
2022-08-22T12:30:14.208Z,266.40
2022-08-22T12:33:23.011Z,246.55
2022-08-22T12:36:45.266Z,239.07
2022-08-22T12:40:10.552Z,222.45
2022-08-22T12:46:15.557Z,223.13
2022-08-22T12:49:38.571Z,252.27
2022-08-22T12:53:03.034Z,257.63
2022-08-22T12:56:33.203Z,275.45
2022-08-22T12:59:23.706Z,272.30
2022-08-22T13:02:28.064Z,262.70
2022-08-22T13:05:24.794Z,241.68
2022-08-22T13:08:22.317Z,227.40
2022-08-22T13:11:23.016Z,228.73
2022-08-22T13:14:18.221Z,246.35
2022-08-22T13:17:25.068Z,258.85
2022-08-22T13:20:24.285Z,265.17
2022-08-22T13:23:20.036Z,262.30
2022-08-22T13:26:16.373Z,254.52
2022-08-22T13:29:39.349Z,264.63
2022-08-22T13:32:33.147Z,278.65
2022-08-22T13:36:10.893Z,262.27
2022-08-22T13:39:06.595Z,248.88
2022-08-22T13:42:00.253Z,233.00
2022-08-22T13:44:52.548Z,217.10
2022-08-22T13:47:50.881Z,204.88
2022-08-22T13:50:53.917Z,198.32
2022-08-22T13:54:01.892Z,194.23
2022-08-22T13:57:20.097Z,192.10
2022-08-22T14:00:29.110Z,217.50
2022-08-22T14:03:22.763Z,212.57
2022-08-22T14:06:36.857Z,214.57
2022-08-22T14:10:02.772Z,239.75
2022-08-22T14:12:55.796Z,251.65
2022-08-22T14:15:45.380Z,241.68
2022-08-22T14:18:45.685Z,258.58
2022-08-22T14:21:40.086Z,265.75
2022-08-22T14:24:45.927Z,266.42
2022-08-22T14:28:00.973Z,269.52
2022-08-22T14:31:07.164Z,264.00
2022-08-22T14:33:59.847Z,256.65
2022-08-22T14:37:13.003Z,260.15
2022-08-22T14:40:03.046Z,266.35
2022-08-22T14:43:01.605Z,264.48
2022-08-22T14:46:23.442Z,257.50
2022-08-22T14:49:20.358Z,250.27
2022-08-22T14:52:25.652Z,249.20
2022-08-22T14:55:26.452Z,245.25
2022-08-22T14:58:26.346Z,246.23
2022-08-22T15:01:19.639Z,253.88
2022-08-22T15:04:13.856Z,248.85
2022-08-22T15:07:05.539Z,248.07
2022-08-22T15:09:56.498Z,248.32
2022-08-22T15:12:51.375Z,248.38
2022-08-22T15:15:52.562Z,243.20
2022-08-22T15:18:51.422Z,242.07
2022-08-22T15:21:41.605Z,239.02
2022-08-22T15:24:29.458Z,238.48
2022-08-22T15:27:21.324Z,228.18
2022-08-22T15:30:20.342Z,223.55
2022-08-22T15:33:39.915Z,219.43
2022-08-22T15:36:30.336Z,226.10
2022-08-22T15:39:57.350Z,223.18
2022-08-22T15:42:49.021Z,217.88
2022-08-22T15:45:39.158Z,212.55
2022-08-22T15:48:39.214Z,214.35
2022-08-22T15:51:52.751Z,207.52
2022-08-22T15:54:46.965Z,209.18
2022-08-22T15:57:42.243Z,204.10
2022-08-22T16:00:43.422Z,197.20
2022-08-22T16:03:34.198Z,191.13
2022-08-22T16:07:09.484Z,193.05
2022-08-22T16:09:59.569Z,183.70
2022-08-22T16:13:07.573Z,185.98
2022-08-22T16:16:01.750Z,186.18
2022-08-22T16:18:48.839Z,181.57
2022-08-22T16:21:39.208Z,180.77
2022-08-22T16:24:26.218Z,181.65
2022-08-22T16:27:22.823Z,181.50
2022-08-22T16:30:14.237Z,185.55
2022-08-22T16:33:01.901Z,180.30
2022-08-22T16:36:24.297Z,180.82
2022-08-22T16:39:23.112Z,178.95
2022-08-22T16:42:13.410Z,174.23
2022-08-22T16:45:05.433Z,179.25
2022-08-22T16:47:59.339Z,181.07
2022-08-22T16:51:01.872Z,179.52
2022-08-22T16:54:11.316Z,175.55
2022-08-22T16:57:07.666Z,174.27
2022-08-22T17:00:13.381Z,170.57
2022-08-22T17:03:25.507Z,169.75
2022-08-22T17:06:37.313Z,171.43
2022-08-22T17:09:43.388Z,173.48
2022-08-22T17:12:45.499Z,168.63
2022-08-22T17:16:17.620Z,170.30
2022-08-22T17:19:20.008Z,165.63
2022-08-22T17:22:41.505Z,170.23
2022-08-22T17:25:53.241Z,171.90
2022-08-22T17:28:42.506Z,167.40
2022-08-22T17:31:46.347Z,168.45
2022-08-22T17:34:43.855Z,165.48
2022-08-22T17:37:55.101Z,165.13
2022-08-22T17:41:11.770Z,161.27
2022-08-22T17:44:04.965Z,158.10
2022-08-22T17:47:27.375Z,155.20
2022-08-22T17:50:30.796Z,152.30
2022-08-22T17:53:33.151Z,156.05
2022-08-22T17:56:45.626Z,153.57
2022-08-22T17:59:37.012Z,155.57
2022-08-22T18:02:32.864Z,147.15
2022-08-22T18:05:22.653Z,149.20
2022-08-22T18:11:54.343Z,143.38
2022-08-22T18:14:59.701Z,141.77
2022-08-22T18:18:05.199Z,141.32
2022-08-22T18:21:05.690Z,140.13
2022-08-22T18:23:59.146Z,138.20
2022-08-22T18:26:57.832Z,138.63
2022-08-22T18:29:52.499Z,137.38
2022-08-22T18:32:55.540Z,135.75
2022-08-22T18:35:53.865Z,136.93
2022-08-22T18:38:59.975Z,135.25
2022-08-22T18:42:09.780Z,133.65
2022-08-22T18:44:57.221Z,132.63
2022-08-22T18:47:55.336Z,133.35
2022-08-22T18:50:42.853Z,130.07
2022-08-22T18:53:46.292Z,126.13
2022-08-22T18:56:54.705Z,129.25
2022-08-22T18:59:46.994Z,128.82
2022-08-22T19:03:14.706Z,128.05
2022-08-22T19:06:18.921Z,124.70
2022-08-22T19:09:27.526Z,124.55
2022-08-22T19:12:39.296Z,124.30
2022-08-22T19:15:50.736Z,124.68
2022-08-22T19:18:51.265Z,125.38
2022-08-22T19:21:57.054Z,126.10
2022-08-22T19:25:09.170Z,124.13
2022-08-22T19:28:11.538Z,122.60
2022-08-22T19:31:22.412Z,124.13
2022-08-22T19:34:35.653Z,123.22
2022-08-22T19:37:30.546Z,121.63
2022-08-22T19:40:45.406Z,123.15
2022-08-22T19:43:40.514Z,120.97
2022-08-22T19:46:38.193Z,121.25
2022-08-22T19:49:43.792Z,122.80
2022-08-22T19:52:46.764Z,119.75
2022-08-22T19:55:39.494Z,118.25
2022-08-22T19:58:32.776Z,119.22
2022-08-22T20:01:36.178Z,117.35
2022-08-22T20:05:08.677Z,117.32
2022-08-22T20:08:24.931Z,117.63
2022-08-22T20:11:45.425Z,115.97
2022-08-22T20:14:36.144Z,115.97
2022-08-22T20:17:25.913Z,113.38
2022-08-22T20:20:23.974Z,115.78
2022-08-22T20:23:29.680Z,115.45
2022-08-22T20:26:16.843Z,114.97
2022-08-22T20:29:07.237Z,114.40
2022-08-22T20:31:58.751Z,115.07
2022-08-22T20:34:47.657Z,115.35
2022-08-22T20:38:05.372Z,114.07
2022-08-22T20:41:05.580Z,113.60
2022-08-22T20:44:06.263Z,115.50
2022-08-22T20:47:02.135Z,113.32
2022-08-22T20:50:01.857Z,111.65
2022-08-22T20:52:51.998Z,111.43
2022-08-22T20:55:54.009Z,113.80
2022-08-22T20:58:47.119Z,114.05
2022-08-22T21:01:34.647Z,112.60
2022-08-22T21:04:25.530Z,115.97
2022-08-22T21:07:21.010Z,116.88
2022-08-22T21:10:48.939Z,117.40
2022-08-22T21:13:37.820Z,113.15
2022-08-22T21:16:33.479Z,113.57
2022-08-22T21:19:26.367Z,113.38
2022-08-22T21:22:29.545Z,111.57
2022-08-22T21:25:17.055Z,113.38
2022-08-22T21:28:04.132Z,110.38
2022-08-22T21:30:51.241Z,109.15
2022-08-22T21:33:43.712Z,111.95
2022-08-22T21:36:31.890Z,112.43
2022-08-22T21:39:36.618Z,111.55
2022-08-22T21:42:35.584Z,112.63
2022-08-22T21:45:37.994Z,108.32
2022-08-22T21:48:44.300Z,109.68
2022-08-22T21:51:44.162Z,106.57
2022-08-22T21:54:40.196Z,110.35
2022-08-22T21:57:35.609Z,111.30
2022-08-22T22:00:59.953Z,110.30
2022-08-22T22:03:47.591Z,104.82
2022-08-22T22:06:35.038Z,111.10
2022-08-22T22:09:22.645Z,111.28
2022-08-22T22:12:12.749Z,111.18
2022-08-22T22:14:59.998Z,110.65
2022-08-22T22:17:47.578Z,110.25
2022-08-22T22:20:34.768Z,110.07
2022-08-22T22:23:22.569Z,107.80
2022-08-22T22:26:09.625Z,111.40
2022-08-22T22:28:58.759Z,107.82
2022-08-22T22:31:45.771Z,107.90
2022-08-22T22:34:32.765Z,105.07
2022-08-22T22:37:19.803Z,105.97
2022-08-22T22:40:08.721Z,102.30
2022-08-22T22:42:55.895Z,100.38
2022-08-22T22:45:42.786Z,97.55
2022-08-22T22:48:29.901Z,95.10
2022-08-22T22:51:16.831Z,96.18
2022-08-22T22:54:03.878Z,98.00
2022-08-22T22:56:51.819Z,98.10
2022-08-22T22:59:38.951Z,100.40
2022-08-22T23:02:27.320Z,93.88
2022-08-22T23:05:14.547Z,93.88
2022-08-22T23:08:03.743Z,91.70
2022-08-22T23:10:50.758Z,90.68
2022-08-22T23:13:39.722Z,91.55
2022-08-22T23:16:32.895Z,87.50
2022-08-22T23:19:24.737Z,87.97
2022-08-22T23:22:11.715Z,83.93
2022-08-22T23:24:58.660Z,87.88
2022-08-22T23:27:52.104Z,89.85
2022-08-22T23:30:39.558Z,89.55
2022-08-22T23:33:26.520Z,84.80
2022-08-22T23:36:18.992Z,87.18
2022-08-22T23:39:07.069Z,22.42
2022-08-22T23:41:54.331Z,82.93
2022-08-22T23:44:42.535Z,84.53
2022-08-22T23:47:29.567Z,82.38
2022-08-22T23:50:16.533Z,81.90
2022-08-22T23:53:03.553Z,80.65
2022-08-22T23:55:50.590Z,82.82
2022-08-22T23:58:37.726Z,88.25
